sensor_id;sensor_type;location;lat;lon;timestamp;P1;P2;P0
58740;PMS7003;44512;53.046;18.604;2024-01-15T00:02:23;15;10;8
58740;PMS7003;44512;53.046;18.604;2024-01-15T00:12:51;6;5;4
58740;PMS7003;44512;53.046;18.604;2024-01-15T00:23:20;13;11;8
58740;PMS7003;44512;53.046;18.604;2024-01-15T00:33:48;14;10;7
58740;PMS7003;44512;53.046;18.604;2024-01-15T00:44:17;17;11;8
58740;PMS7003;44512;53.046;18.604;2024-01-15T00:54:45;15;12;8
58740;PMS7003;44512;53.046;18.604;2024-01-15T01:05:13;14;11;9
58740;PMS7003;44512;53.046;18.604;2024-01-15T01:15:42;20;14;9
58740;PMS7003;44512;53.046;18.604;2024-01-15T01:26:10;17;14;11
58740;PMS7003;44512;53.046;18.604;2024-01-15T01:36:39;23;16;10
58740;PMS7003;44512;53.046;18.604;2024-01-15T01:47:07;17;10;6
58740;PMS7003;44512;53.046;18.604;2024-01-15T01:57:36;18;13;10
58740;PMS7003;44512;53.046;18.604;2024-01-15T02:08:04;13;12;9
58740;PMS7003;44512;53.046;18.604;2024-01-15T02:29:01;20;13;10
58740;PMS7003;44512;53.046;18.604;2024-01-15T02:39:29;16;11;8
58740;PMS7003;44512;53.046;18.604;2024-01-15T02:49:58;17;13;10
58740;PMS7003;44512;53.046;18.604;2024-01-15T03:00:26;18;11;9
58740;PMS7003;44512;53.046;18.604;2024-01-15T03:10:55;11;11;8
58740;PMS7003;44512;53.046;18.604;2024-01-15T03:21:23;11;9;8
58740;PMS7003;44512;53.046;18.604;2024-01-15T03:31:52;14;11;8
58740;PMS7003;44512;53.046;18.604;2024-01-15T03:42:20;13;12;9
58740;PMS7003;44512;53.046;18.604;2024-01-15T03:52:48;16;11;8
58740;PMS7003;44512;53.046;18.604;2024-01-15T04:03:17;17;12;8
58740;PMS7003;44512;53.046;18.604;2024-01-15T04:13:45;15;9;7
58740;PMS7003;44512;53.046;18.604;2024-01-15T04:24:14;12;11;8
58740;PMS7003;44512;53.046;18.604;2024-01-15T04:34:42;17;13;10
58740;PMS7003;44512;53.046;18.604;2024-01-15T04:45:11;18;13;8
58740;PMS7003;44512;53.046;18.604;2024-01-15T04:55:39;17;11;8
58740;PMS7003;44512;53.046;18.604;2024-01-15T05:06:07;16;12;9
58740;PMS7003;44512;53.046;18.604;2024-01-15T05:16:39;19;13;8
58740;PMS7003;44512;53.046;18.604;2024-01-15T05:27:04;18;14;9
58740;PMS7003;44512;53.046;18.604;2024-01-15T05:37:33;14;11;9
58740;PMS7003;44512;53.046;18.604;2024-01-15T05:48:01;11;9;6
58740;PMS7003;44512;53.046;18.604;2024-01-15T05:58:30;10;6;5
58740;PMS7003;44512;53.046;18.604;2024-01-15T06:08:58;5;5;3
58740;PMS7003;44512;53.046;18.604;2024-01-15T06:19:26;3;2;2
58740;PMS7003;44512;53.046;18.604;2024-01-15T06:29:55;2;1;0
58740;PMS7003;44512;53.046;18.604;2024-01-15T06:40:23;1;0;0
58740;PMS7003;44512;53.046;18.604;2024-01-15T06:50:52;4;2;2
58740;PMS7003;44512;53.046;18.604;2024-01-15T07:01:20;5;4;3
58740;PMS7003;44512;53.046;18.604;2024-01-15T07:11:48;4;4;3
58740;PMS7003;44512;53.046;18.604;2024-01-15T07:22:17;5;4;3
58740;PMS7003;44512;53.046;18.604;2024-01-15T07:32:45;7;4;3
58740;PMS7003;44512;53.046;18.604;2024-01-15T07:43:14;3;3;2
58740;PMS7003;44512;53.046;18.604;2024-01-15T07:53:42;5;4;3
58740;PMS7003;44512;53.046;18.604;2024-01-15T08:04:10;6;4;3
58740;PMS7003;44512;53.046;18.604;2024-01-15T08:14:39;9;6;5
58740;PMS7003;44512;53.046;18.604;2024-01-15T08:25:07;6;4;4
58740;PMS7003;44512;53.046;18.604;2024-01-15T08:35:36;9;5;4
58740;PMS7003;44512;53.046;18.604;2024-01-15T08:46:04;7;4;3
58740;PMS7003;44512;53.046;18.604;2024-01-15T08:56:32;11;7;6
58740;PMS7003;44512;53.046;18.604;2024-01-15T09:07:01;5;4;3
58740;PMS7003;44512;53.046;18.604;2024-01-15T09:17:31;6;5;4
58740;PMS7003;44512;53.046;18.604;2024-01-15T09:27:58;8;5;4
58740;PMS7003;44512;53.046;18.604;2024-01-15T09:38:26;5;4;3
58740;PMS7003;44512;53.046;18.604;2024-01-15T09:48:55;9;5;4
58740;PMS7003;44512;53.046;18.604;2024-01-15T09:59:23;6;5;4
58740;PMS7003;44512;53.046;18.604;2024-01-15T10:09:51;4;4;3
58740;PMS7003;44512;53.046;18.604;2024-01-15T10:20:20;7;5;4
58740;PMS7003;44512;53.046;18.604;2024-01-15T10:30:51;5;3;3
58740;PMS7003;44512;53.046;18.604;2024-01-15T10:41:17;7;3;3
58740;PMS7003;44512;53.046;18.604;2024-01-15T10:51:45;6;4;4
58740;PMS7003;44512;53.046;18.604;2024-01-15T11:02:14;5;5;3
58740;PMS7003;44512;53.046;18.604;2024-01-15T11:12:42;6;5;4
58740;PMS7003;44512;53.046;18.604;2024-01-15T11:23:10;7;3;2
58740;PMS7003;44512;53.046;18.604;2024-01-15T11:33:39;7;4;3
58740;PMS7003;44512;53.046;18.604;2024-01-15T11:49:23;2;1;1
58740;PMS7003;44512;53.046;18.604;2024-01-15T11:59:47;3;1;1
58740;PMS7003;44512;53.046;18.604;2024-01-15T12:10:22;2;1;0
58740;PMS7003;44512;53.046;18.604;2024-01-15T12:20:44;2;1;1
58740;PMS7003;44512;53.046;18.604;2024-01-15T12:31:13;2;1;1
58740;PMS7003;44512;53.046;18.604;2024-01-15T12:41:41;5;3;2
58740;PMS7003;44512;53.046;18.604;2024-01-15T12:52:09;1;1;0
58740;PMS7003;44512;53.046;18.604;2024-01-15T13:02:38;2;1;0
58740;PMS7003;44512;53.046;18.604;2024-01-15T13:13:06;4;2;1
58740;PMS7003;44512;53.046;18.604;2024-01-15T13:23:35;2;0;0
58740;PMS7003;44512;53.046;18.604;2024-01-15T13:34:03;1;0;0
58740;PMS7003;44512;53.046;18.604;2024-01-15T13:44:31;1;0;0
58740;PMS7003;44512;53.046;18.604;2024-01-15T13:55:00;0;0;0
58740;PMS7003;44512;53.046;18.604;2024-01-15T14:05:28;3;2;1
58740;PMS7003;44512;53.046;18.604;2024-01-15T14:15:57;2;2;1
58740;PMS7003;44512;53.046;18.604;2024-01-15T14:26:25;2;2;1
58740;PMS7003;44512;53.046;18.604;2024-01-15T14:36:54;13;9;6
58740;PMS7003;44512;53.046;18.604;2024-01-15T14:47:22;14;12;8
58740;PMS7003;44512;53.046;18.604;2024-01-15T14:57:52;16;11;8
58740;PMS7003;44512;53.046;18.604;2024-01-15T15:08:19;4;2;1
58740;PMS7003;44512;53.046;18.604;2024-01-15T15:18:47;7;2;2
58740;PMS7003;44512;53.046;18.604;2024-01-15T15:29:16;3;3;1
58740;PMS7003;44512;53.046;18.604;2024-01-15T15:39:44;2;1;0
58740;PMS7003;44512;53.046;18.604;2024-01-15T15:50:13;3;1;1
58740;PMS7003;44512;53.046;18.604;2024-01-15T16:00:41;0;0;0
58740;PMS7003;44512;53.046;18.604;2024-01-15T16:11:09;0;0;0
58740;PMS7003;44512;53.046;18.604;2024-01-15T16:21:38;2;2;1
58740;PMS7003;44512;53.046;18.604;2024-01-15T16:32:06;4;4;2
58740;PMS7003;44512;53.046;18.604;2024-01-15T16:42:35;4;3;2
58740;PMS7003;44512;53.046;18.604;2024-01-15T16:53:03;2;1;0
58740;PMS7003;44512;53.046;18.604;2024-01-15T17:03:31;4;3;2
58740;PMS7003;44512;53.046;18.604;2024-01-15T17:14:00;2;0;0
58740;PMS7003;44512;53.046;18.604;2024-01-15T17:24:28;5;3;2
58740;PMS7003;44512;53.046;18.604;2024-01-15T17:34:57;2;0;0
58740;PMS7003;44512;53.046;18.604;2024-01-15T17:45:25;1;1;0
58740;PMS7003;44512;53.046;18.604;2024-01-15T17:55:53;1;1;1
58740;PMS7003;44512;53.046;18.604;2024-01-15T18:06:22;0;0;0
58740;PMS7003;44512;53.046;18.604;2024-01-15T18:16:50;2;2;1
58740;PMS7003;44512;53.046;18.604;2024-01-15T18:27:19;1;0;0
58740;PMS7003;44512;53.046;18.604;2024-01-15T18:37:47;1;0;0
58740;PMS7003;44512;53.046;18.604;2024-01-15T18:48:16;0;0;0
58740;PMS7003;44512;53.046;18.604;2024-01-15T18:58:44;1;0;0
58740;PMS7003;44512;53.046;18.604;2024-01-15T19:09:12;0;0;0
58740;PMS7003;44512;53.046;18.604;2024-01-15T19:19:41;1;0;0
58740;PMS7003;44512;53.046;18.604;2024-01-15T19:30:10;1;0;0
58740;PMS7003;44512;53.046;18.604;2024-01-15T19:40:38;4;1;1
58740;PMS7003;44512;53.046;18.604;2024-01-15T19:51:06;3;1;0
58740;PMS7003;44512;53.046;18.604;2024-01-15T20:01:35;0;0;0
58740;PMS7003;44512;53.046;18.604;2024-01-15T20:12:03;0;0;0
58740;PMS7003;44512;53.046;18.604;2024-01-15T20:22:31;0;0;0
58740;PMS7003;44512;53.046;18.604;2024-01-15T20:33:00;1;0;0
58740;PMS7003;44512;53.046;18.604;2024-01-15T20:43:28;0;0;0
58740;PMS7003;44512;53.046;18.604;2024-01-15T20:53:57;1;0;0
58740;PMS7003;44512;53.046;18.604;2024-01-15T21:04:25;0;0;0
58740;PMS7003;44512;53.046;18.604;2024-01-15T21:14:53;0;0;0
58740;PMS7003;44512;53.046;18.604;2024-01-15T21:25:22;0;0;0
58740;PMS7003;44512;53.046;18.604;2024-01-15T21:35:50;0;0;0
58740;PMS7003;44512;53.046;18.604;2024-01-15T21:46:19;2;0;0
58740;PMS7003;44512;53.046;18.604;2024-01-15T21:56:47;1;0;0
58740;PMS7003;44512;53.046;18.604;2024-01-15T22:07:16;2;0;0
58740;PMS7003;44512;53.046;18.604;2024-01-15T22:17:44;1;0;0
58740;PMS7003;44512;53.046;18.604;2024-01-15T22:28:12;2;2;0
58740;PMS7003;44512;53.046;18.604;2024-01-15T22:38:41;1;0;0
58740;PMS7003;44512;53.046;18.604;2024-01-15T22:49:09;0;0;0
58740;PMS7003;44512;53.046;18.604;2024-01-15T22:59:38;0;0;0
58740;PMS7003;44512;53.046;18.604;2024-01-15T23:10:07;0;0;0
58740;PMS7003;44512;53.046;18.604;2024-01-15T23:20:35;0;0;0
58740;PMS7003;44512;53.046;18.604;2024-01-15T23:31:03;0;0;0
58740;PMS7003;44512;53.046;18.604;2024-01-15T23:41:31;1;0;0
58740;PMS7003;44512;53.046;18.604;2024-01-15T23:51:59;0;0;0
